createdAt,value
2018-02-16T00:01:02.764Z,1.80
2018-02-16T00:03:30.250Z,1.70
2018-02-16T00:05:57.718Z,1.70
2018-02-16T00:08:25.204Z,1.60
2018-02-16T00:10:53.446Z,1.50
2018-02-16T00:13:20.938Z,1.50
2018-02-16T00:15:49.167Z,1.40
2018-02-16T00:18:16.644Z,1.40
2018-02-16T00:20:44.142Z,1.40
2018-02-16T00:23:11.643Z,1.50
2018-02-16T00:25:39.121Z,1.50
2018-02-16T00:28:06.603Z,1.50
2018-02-16T00:30:34.098Z,1.50
2018-02-16T00:33:01.614Z,1.50
2018-02-16T00:35:29.094Z,1.50
2018-02-16T00:37:57.334Z,1.40
2018-02-16T00:40:24.820Z,1.40
2018-02-16T00:42:53.066Z,1.30
2018-02-16T00:45:20.542Z,1.30
2018-02-16T00:47:48.013Z,1.20
2018-02-16T00:50:15.559Z,1.20
2018-02-16T00:52:43.041Z,1.20
2018-02-16T00:55:11.278Z,1.00
2018-02-16T00:57:38.776Z,1.00
2018-02-16T01:00:07.018Z,1.10
2018-02-16T01:02:34.558Z,1.10
2018-02-16T01:05:02.051Z,1.10
2018-02-16T01:07:29.535Z,1.10
2018-02-16T01:09:57.775Z,1.20
2018-02-16T01:12:26.018Z,1.20
2018-02-16T01:14:53.497Z,1.20
2018-02-16T01:17:20.978Z,1.10
2018-02-16T01:19:48.467Z,1.10
2018-02-16T01:22:15.946Z,1.00
2018-02-16T01:24:43.442Z,1.10
2018-02-16T01:27:10.952Z,1.10
2018-02-16T01:29:38.423Z,1.10
2018-02-16T01:32:05.923Z,1.30
2018-02-16T01:34:33.394Z,1.30
2018-02-16T01:37:00.894Z,1.20
2018-02-16T01:39:28.390Z,1.30
2018-02-16T01:41:55.861Z,1.40
2018-02-16T01:44:23.346Z,1.40
2018-02-16T01:46:50.839Z,1.30
2018-02-16T01:49:18.348Z,1.30
2018-02-16T01:51:45.822Z,1.30
2018-02-16T01:54:14.085Z,1.30
2018-02-16T01:56:42.353Z,1.30
2018-02-16T01:59:09.861Z,1.30
2018-02-16T02:01:37.339Z,1.30
2018-02-16T02:04:04.837Z,1.30
2018-02-16T02:06:32.301Z,1.20
2018-02-16T02:09:00.568Z,1.20
2018-02-16T02:11:28.038Z,1.10
2018-02-16T02:13:56.354Z,1.00
2018-02-16T02:16:23.866Z,1.00
2018-02-16T02:18:51.335Z,1.00
2018-02-16T02:21:19.584Z,0.80
2018-02-16T02:23:47.051Z,0.80
2018-02-16T02:26:14.556Z,0.80
2018-02-16T02:28:42.036Z,0.90
2018-02-16T02:31:09.516Z,1.00
2018-02-16T02:33:37.018Z,1.00
2018-02-16T02:36:04.505Z,1.00
2018-02-16T02:38:31.990Z,1.00
2018-02-16T02:40:59.490Z,0.90
2018-02-16T02:43:27.729Z,0.90
2018-02-16T02:45:55.217Z,0.90
2018-02-16T02:48:23.453Z,1.00
2018-02-16T02:50:50.948Z,1.00
2018-02-16T02:53:19.190Z,1.00
2018-02-16T02:55:48.196Z,1.00
2018-02-16T02:58:15.687Z,1.00
2018-02-16T03:00:43.918Z,0.80
2018-02-16T03:03:11.392Z,0.80
2018-02-16T03:05:38.878Z,0.80
2018-02-16T03:08:07.129Z,0.80
2018-02-16T03:10:34.589Z,0.80
2018-02-16T03:13:02.070Z,0.80
2018-02-16T03:15:30.382Z,0.80
2018-02-16T03:17:57.878Z,0.80
2018-02-16T03:20:25.337Z,0.70
2018-02-16T03:22:52.842Z,0.70
2018-02-16T03:25:20.292Z,0.70
2018-02-16T03:27:47.779Z,0.70
2018-02-16T03:30:15.280Z,0.70
2018-02-16T03:32:43.535Z,0.70
2018-02-16T03:35:10.989Z,0.70
2018-02-16T03:37:38.470Z,0.70
2018-02-16T03:40:05.937Z,0.70
2018-02-16T03:42:34.184Z,0.70
2018-02-16T03:45:01.647Z,0.70
2018-02-16T03:47:29.127Z,0.60
2018-02-16T03:49:57.389Z,0.60
2018-02-16T03:52:25.614Z,0.70
2018-02-16T03:54:53.110Z,0.70
2018-02-16T03:57:20.574Z,0.80
2018-02-16T03:59:48.066Z,0.80
2018-02-16T04:02:16.296Z,0.90
2018-02-16T04:04:43.765Z,0.80
2018-02-16T04:07:11.229Z,0.90
2018-02-16T04:09:38.703Z,0.80
2018-02-16T04:12:06.165Z,0.80
2018-02-16T04:14:34.413Z,1.00
2018-02-16T04:17:01.886Z,1.00
2018-02-16T04:19:29.354Z,1.00
2018-02-16T04:21:56.885Z,0.90
2018-02-16T04:24:24.355Z,0.90
2018-02-16T04:26:51.825Z,0.80
2018-02-16T04:29:19.293Z,0.80
2018-02-16T04:31:46.769Z,0.80
2018-02-16T04:34:14.261Z,0.70
2018-02-16T04:36:41.741Z,0.70
2018-02-16T04:39:09.214Z,0.80
2018-02-16T04:41:36.678Z,0.80
2018-02-16T04:44:04.142Z,0.80
2018-02-16T04:46:32.397Z,0.70
2018-02-16T04:48:59.873Z,0.70
2018-02-16T04:51:27.329Z,0.70
2018-02-16T04:53:54.811Z,0.60
2018-02-16T04:56:23.062Z,0.60
2018-02-16T04:58:50.543Z,0.60
2018-02-16T05:01:18.766Z,0.70
2018-02-16T05:03:46.237Z,0.70
2018-02-16T05:06:13.790Z,0.60
2018-02-16T05:08:41.300Z,0.60
2018-02-16T05:11:09.542Z,0.70
2018-02-16T05:13:37.004Z,0.60
2018-02-16T05:16:04.501Z,0.60
2018-02-16T05:18:31.958Z,0.70
2018-02-16T05:20:59.426Z,0.60
2018-02-16T05:23:26.897Z,0.70
2018-02-16T05:25:54.396Z,0.60
2018-02-16T05:28:22.630Z,0.50
2018-02-16T05:30:50.115Z,0.50
2018-02-16T05:33:17.575Z,0.50
2018-02-16T05:35:45.071Z,0.50
2018-02-16T05:38:13.314Z,0.40
2018-02-16T05:40:40.788Z,0.40
2018-02-16T05:43:08.249Z,0.40
2018-02-16T05:45:35.781Z,0.40
2018-02-16T05:48:03.250Z,0.40
2018-02-16T05:50:30.731Z,0.30
2018-02-16T05:52:58.212Z,0.30
2018-02-16T05:55:26.455Z,0.30
2018-02-16T05:57:53.917Z,0.30
2018-02-16T06:00:22.165Z,0.30
2018-02-16T06:02:49.644Z,0.30
2018-02-16T06:05:17.109Z,0.30
2018-02-16T06:07:44.573Z,0.20
2018-02-16T06:10:12.821Z,0.20
2018-02-16T06:12:40.294Z,0.20
2018-02-16T06:15:07.782Z,0.20
2018-02-16T06:17:35.407Z,0.30
2018-02-16T06:20:02.866Z,0.30
2018-02-16T06:22:30.354Z,0.20
2018-02-16T06:24:58.669Z,0.30
2018-02-16T06:27:26.153Z,0.30
2018-02-16T06:29:53.637Z,0.30
2018-02-16T06:32:21.123Z,0.40
2018-02-16T06:34:48.585Z,0.40
2018-02-16T06:37:16.058Z,0.40
2018-02-16T06:39:43.537Z,0.40
2018-02-16T06:42:11.134Z,0.40
2018-02-16T06:44:39.382Z,0.40
2018-02-16T06:47:06.849Z,0.40
2018-02-16T06:49:34.343Z,0.40
2018-02-16T06:52:02.569Z,0.40
2018-02-16T06:54:30.034Z,0.40
2018-02-16T06:56:57.507Z,0.50
2018-02-16T06:59:24.985Z,0.50
2018-02-16T07:01:53.228Z,0.50
2018-02-16T07:04:20.710Z,0.50
2018-02-16T07:06:48.182Z,0.60
2018-02-16T07:09:16.407Z,0.60
2018-02-16T07:11:43.886Z,0.60
2018-02-16T07:14:11.365Z,0.70
2018-02-16T07:16:38.833Z,0.70
2018-02-16T07:19:06.303Z,0.80
2018-02-16T07:21:35.578Z,0.90
2018-02-16T07:24:03.039Z,0.90
2018-02-16T07:26:31.295Z,1.10
2018-02-16T07:28:58.774Z,1.00
2018-02-16T07:31:26.258Z,1.20
2018-02-16T07:33:53.765Z,1.20
2018-02-16T07:36:21.255Z,1.30
2018-02-16T07:38:48.751Z,1.40
2018-02-16T07:41:16.229Z,1.40
2018-02-16T07:43:43.717Z,1.50
2018-02-16T07:46:11.178Z,1.60
2018-02-16T07:48:38.676Z,1.70
2018-02-16T07:51:06.149Z,1.80
2018-02-16T07:53:33.615Z,1.90
2018-02-16T07:56:01.144Z,2.00
2018-02-16T07:58:28.642Z,2.10
2018-02-16T08:00:56.870Z,2.40
2018-02-16T08:03:25.121Z,2.80
2018-02-16T08:05:52.573Z,2.80
2018-02-16T08:08:20.062Z,3.20
2018-02-16T08:10:48.298Z,3.40
2018-02-16T08:13:15.785Z,3.50
2018-02-16T08:15:43.244Z,3.80
2018-02-16T08:18:11.493Z,4.70
2018-02-16T08:20:38.966Z,4.70
2018-02-16T08:23:06.632Z,5.90
2018-02-16T08:25:34.111Z,6.70
2018-02-16T08:28:02.342Z,8.10
2018-02-16T08:30:29.933Z,8.10
2018-02-16T08:32:58.186Z,9.30
2018-02-16T08:35:25.679Z,9.30
2018-02-16T08:37:53.914Z,9.80
2018-02-16T08:40:21.389Z,9.80
2018-02-16T08:42:48.876Z,8.80
2018-02-16T08:45:17.119Z,7.60
2018-02-16T08:47:44.575Z,7.60
2018-02-16T08:50:12.078Z,7.20
2018-02-16T08:52:39.654Z,7.80
2018-02-16T08:55:07.226Z,9.10
2018-02-16T08:57:34.879Z,10.10
2018-02-16T09:00:02.458Z,11.30
2018-02-16T09:02:29.924Z,11.70
2018-02-16T09:04:57.390Z,12.30
2018-02-16T09:07:24.997Z,12.30
2018-02-16T09:09:53.326Z,12.80
2018-02-16T09:12:20.812Z,12.80
2018-02-16T09:14:48.482Z,13.40
2018-02-16T09:17:16.136Z,13.70
2018-02-16T09:19:43.670Z,13.60
2018-02-16T09:22:11.146Z,13.40
2018-02-16T09:24:38.690Z,13.40
2018-02-16T09:27:06.166Z,14.20
2018-02-16T09:29:33.661Z,14.50
2018-02-16T09:32:01.184Z,14.90
2018-02-16T09:34:28.686Z,15.10
2018-02-16T09:36:57.152Z,15.00
2018-02-16T09:39:26.999Z,15.40
2018-02-16T09:41:54.526Z,15.40
2018-02-16T09:44:22.986Z,16.20
2018-02-16T09:46:50.832Z,16.20
2018-02-16T09:49:18.423Z,15.60
2018-02-16T09:51:46.189Z,15.20
2018-02-16T09:54:13.765Z,15.20
2018-02-16T09:56:41.256Z,16.20
2018-02-16T09:59:08.739Z,16.00
2018-02-16T10:01:36.211Z,16.10
2018-02-16T10:04:03.772Z,16.50
2018-02-16T10:06:31.274Z,16.80
2018-02-16T10:08:58.777Z,15.90
2018-02-16T10:11:26.267Z,15.10
2018-02-16T10:13:54.528Z,16.10
2018-02-16T10:16:22.037Z,16.10
2018-02-16T10:18:49.568Z,15.30
2018-02-16T10:21:17.790Z,12.30
2018-02-16T10:23:45.688Z,12.20
2018-02-16T10:26:13.348Z,11.70
2018-02-16T10:28:40.840Z,12.50
2018-02-16T10:31:08.317Z,12.70
2018-02-16T10:33:35.798Z,12.90
2018-02-16T10:36:03.262Z,13.70
2018-02-16T10:38:30.900Z,14.40
2018-02-16T10:40:58.382Z,14.90
2018-02-16T10:43:26.837Z,15.90
2018-02-16T10:45:54.323Z,15.70
2018-02-16T10:48:21.791Z,15.90
2018-02-16T10:50:49.268Z,15.90
2018-02-16T10:53:16.779Z,14.20
2018-02-16T10:55:44.242Z,12.80
2018-02-16T10:58:11.745Z,13.00
2018-02-16T11:00:45.006Z,14.50
2018-02-16T11:03:18.061Z,14.80
2018-02-16T11:05:51.369Z,15.60
2018-02-16T11:08:24.465Z,16.70
2018-02-16T11:10:51.936Z,17.10
2018-02-16T11:13:19.532Z,16.60
2018-02-16T11:15:47.637Z,16.00
2018-02-16T11:18:15.164Z,15.70
2018-02-16T11:20:42.634Z,16.00
2018-02-16T11:23:10.113Z,15.70
2018-02-16T11:25:38.432Z,15.20
2018-02-16T11:28:05.913Z,15.20
2018-02-16T11:30:33.379Z,15.30
2018-02-16T11:33:00.866Z,14.90
2018-02-16T11:35:28.330Z,15.10
2018-02-16T11:37:55.919Z,15.80
2018-02-16T11:40:23.505Z,15.90
2018-02-16T11:42:51.858Z,15.60
2018-02-16T11:45:19.425Z,15.60
2018-02-16T11:47:47.098Z,15.50
2018-02-16T11:50:14.561Z,15.30
2018-02-16T11:52:42.235Z,15.50
2018-02-16T11:55:09.727Z,16.20
2018-02-16T11:57:37.949Z,15.80
2018-02-16T12:00:05.695Z,15.70
2018-02-16T12:02:33.216Z,16.00
2018-02-16T12:05:01.713Z,15.40
2018-02-16T12:07:30.136Z,15.90
2018-02-16T12:09:57.743Z,15.90
2018-02-16T12:12:26.084Z,16.00
2018-02-16T12:14:53.838Z,16.00
2018-02-16T12:17:21.360Z,13.80
2018-02-16T12:19:48.835Z,13.90
2018-02-16T12:22:16.327Z,13.70
2018-02-16T12:24:43.925Z,13.20
2018-02-16T12:27:12.325Z,11.40
2018-02-16T12:29:40.109Z,11.40
2018-02-16T12:32:07.593Z,11.30
2018-02-16T12:34:35.157Z,10.90
2018-02-16T12:37:02.630Z,10.80
2018-02-16T12:39:30.100Z,10.50
2018-02-16T12:41:58.341Z,11.00
2018-02-16T12:44:25.795Z,11.00
2018-02-16T12:46:53.286Z,11.00
2018-02-16T12:49:20.748Z,11.00
2018-02-16T12:51:48.282Z,10.90
2018-02-16T12:54:15.731Z,10.60
2018-02-16T12:56:43.206Z,9.90
2018-02-16T12:59:10.669Z,9.60
2018-02-16T13:01:38.139Z,9.40
2018-02-16T13:04:05.597Z,9.30
2018-02-16T13:06:33.068Z,9.00
2018-02-16T13:09:00.531Z,8.70
2018-02-16T13:11:28.755Z,8.30
2018-02-16T13:13:56.235Z,8.30
2018-02-16T13:16:23.721Z,8.20
2018-02-16T13:18:51.956Z,8.40
2018-02-16T13:21:19.420Z,8.40
2018-02-16T13:23:46.877Z,8.30
2018-02-16T13:26:14.350Z,8.40
2018-02-16T13:28:41.820Z,8.20
2018-02-16T13:31:09.315Z,8.40
2018-02-16T13:33:37.506Z,8.30
2018-02-16T13:36:04.984Z,8.20
2018-02-16T13:38:32.589Z,8.30
2018-02-16T13:41:00.816Z,8.30
2018-02-16T13:43:28.285Z,8.20
2018-02-16T13:45:55.762Z,8.10
2018-02-16T13:48:24.772Z,8.10
2018-02-16T13:50:52.257Z,8.10
2018-02-16T13:53:19.709Z,8.20
2018-02-16T13:55:47.192Z,8.00
2018-02-16T13:58:14.649Z,7.90
2018-02-16T14:00:42.116Z,8.00
2018-02-16T14:03:10.299Z,8.00
2018-02-16T14:05:37.770Z,7.90
2018-02-16T14:08:05.233Z,7.80
2018-02-16T14:10:32.705Z,7.60
2018-02-16T14:13:00.950Z,7.60
2018-02-16T14:15:28.425Z,7.60
2018-02-16T14:17:55.886Z,7.60
2018-02-16T14:20:23.340Z,7.80
2018-02-16T14:22:50.802Z,7.80
2018-02-16T14:25:18.294Z,7.90
2018-02-16T14:27:46.534Z,8.00
2018-02-16T14:30:14.003Z,8.00
2018-02-16T14:32:41.470Z,8.00
2018-02-16T14:35:09.717Z,7.90
2018-02-16T14:37:37.252Z,7.80
2018-02-16T14:40:04.712Z,7.80
2018-02-16T14:42:32.205Z,7.80
2018-02-16T14:44:59.668Z,7.80
2018-02-16T14:47:27.152Z,7.80
2018-02-16T14:49:55.408Z,7.80
2018-02-16T14:52:22.888Z,7.80
2018-02-16T14:54:51.118Z,7.60
2018-02-16T14:57:19.339Z,7.50
2018-02-16T14:59:47.575Z,7.50
2018-02-16T15:02:15.035Z,7.40
2018-02-16T15:04:42.544Z,7.50
2018-02-16T15:07:10.769Z,7.50
2018-02-16T15:09:38.279Z,7.50
2018-02-16T15:12:05.743Z,7.50
2018-02-16T15:14:33.235Z,7.50
2018-02-16T15:17:00.702Z,7.50
2018-02-16T15:19:28.170Z,7.40
2018-02-16T15:21:55.670Z,7.40
2018-02-16T15:24:23.154Z,7.40
2018-02-16T15:26:50.702Z,7.40
2018-02-16T15:29:18.166Z,7.40
2018-02-16T15:31:45.632Z,7.30
2018-02-16T15:34:13.121Z,7.30
2018-02-16T15:36:40.588Z,7.20
2018-02-16T15:39:08.070Z,7.20
2018-02-16T15:41:36.312Z,7.10
2018-02-16T15:44:03.779Z,7.00
2018-02-16T15:46:31.281Z,7.00
2018-02-16T15:48:58.758Z,7.00
2018-02-16T15:51:26.237Z,6.90
2018-02-16T15:53:53.714Z,6.90
2018-02-16T15:56:23.614Z,6.70
2018-02-16T15:58:51.083Z,6.70
2018-02-16T16:01:18.549Z,6.70
2018-02-16T16:03:46.008Z,6.60
2018-02-16T16:06:14.253Z,6.50
2018-02-16T16:08:41.705Z,6.50
2018-02-16T16:11:09.179Z,6.40
2018-02-16T16:13:36.632Z,6.30
2018-02-16T16:16:04.106Z,6.30
2018-02-16T16:18:31.739Z,6.10
2018-02-16T16:20:59.219Z,6.00
2018-02-16T16:23:26.700Z,5.90
2018-02-16T16:25:54.158Z,5.80
2018-02-16T16:28:22.279Z,5.80
2018-02-16T16:30:49.742Z,5.60
2018-02-16T16:33:17.207Z,5.50
2018-02-16T16:35:45.599Z,5.50
2018-02-16T16:38:13.085Z,5.30
2018-02-16T16:40:42.664Z,5.20
2018-02-16T16:43:12.674Z,5.10
2018-02-16T16:45:42.317Z,5.00
2018-02-16T16:48:10.096Z,4.90
2018-02-16T16:50:38.572Z,4.80
2018-02-16T16:53:06.114Z,4.70
2018-02-16T16:55:33.663Z,4.70
2018-02-16T16:58:01.882Z,4.60
2018-02-16T17:00:30.132Z,4.30
2018-02-16T17:02:57.590Z,4.30
2018-02-16T17:05:25.070Z,4.30
2018-02-16T17:07:53.319Z,3.90
2018-02-16T17:10:20.776Z,3.90
2018-02-16T17:12:48.250Z,3.70
2018-02-16T17:15:15.721Z,3.70
2018-02-16T17:17:43.962Z,3.50
2018-02-16T17:20:11.452Z,3.50
2018-02-16T17:22:38.945Z,3.30
2018-02-16T17:25:06.432Z,3.20
2018-02-16T17:27:33.896Z,3.00
2018-02-16T17:30:01.389Z,2.80
2018-02-16T17:32:29.622Z,2.50
2018-02-16T17:34:57.082Z,2.50
2018-02-16T17:37:24.567Z,2.40
2018-02-16T17:39:52.801Z,2.20
2018-02-16T17:42:20.278Z,2.20
2018-02-16T17:44:47.734Z,2.10
2018-02-16T17:47:15.226Z,2.00
2018-02-16T17:49:42.713Z,2.00
2018-02-16T17:52:10.254Z,1.80
2018-02-16T17:54:38.524Z,1.60
2018-02-16T17:57:05.994Z,1.60
2018-02-16T17:59:34.261Z,1.40
2018-02-16T18:02:01.759Z,1.40
2018-02-16T18:04:29.269Z,1.30
2018-02-16T18:06:56.752Z,1.30
2018-02-16T18:09:25.123Z,1.30
2018-02-16T18:11:53.389Z,1.40
2018-02-16T18:14:20.871Z,1.30
2018-02-16T18:16:48.354Z,1.40
2018-02-16T18:19:15.858Z,1.30
2018-02-16T18:21:43.339Z,1.20
2018-02-16T18:24:11.585Z,0.90
2018-02-16T18:26:39.042Z,0.90
2018-02-16T18:29:06.604Z,0.80
2018-02-16T18:31:34.071Z,1.00
2018-02-16T18:34:01.562Z,1.20
2018-02-16T18:36:29.074Z,1.30
2018-02-16T18:38:56.548Z,1.30
2018-02-16T18:41:24.020Z,1.10
2018-02-16T18:43:52.265Z,0.90
2018-02-16T18:46:19.737Z,0.90
2018-02-16T18:48:47.202Z,0.80
2018-02-16T18:51:14.714Z,0.70
2018-02-16T18:53:42.219Z,0.80
2018-02-16T18:56:09.694Z,0.90
2018-02-16T18:58:38.024Z,1.00
2018-02-16T19:01:05.531Z,1.00
2018-02-16T19:03:33.789Z,0.80
2018-02-16T19:06:01.251Z,0.80
2018-02-16T19:08:29.532Z,0.80
2018-02-16T19:10:56.996Z,0.80
2018-02-16T19:13:25.338Z,0.50
2018-02-16T19:15:52.806Z,0.50
2018-02-16T19:18:20.336Z,0.40
2018-02-16T19:20:47.802Z,0.30
2018-02-16T19:23:15.270Z,0.20
2018-02-16T19:25:42.923Z,0.10
2018-02-16T19:28:10.406Z,-0.10
2018-02-16T19:30:38.207Z,-0.20
2018-02-16T19:33:07.273Z,-0.30
2018-02-16T19:35:34.969Z,-0.30
2018-02-16T19:38:02.657Z,-0.30
2018-02-16T19:40:30.518Z,-0.20
2018-02-16T19:42:58.386Z,-0.20
2018-02-16T19:45:26.058Z,-0.30
2018-02-16T19:47:53.918Z,-0.50
2018-02-16T19:50:21.888Z,-0.60
2018-02-16T19:52:49.787Z,-0.70
2018-02-16T19:55:17.260Z,-0.70
2018-02-16T19:57:45.016Z,-0.60
2018-02-16T20:00:13.052Z,-0.60
2018-02-16T20:02:41.022Z,-0.70
2018-02-16T20:05:08.585Z,-0.70
2018-02-16T20:07:36.653Z,-0.80
2018-02-16T20:10:04.621Z,-0.60
2018-02-16T20:12:33.617Z,-0.40
2018-02-16T20:15:01.138Z,-0.40
2018-02-16T20:17:28.646Z,-0.40
2018-02-16T20:19:56.911Z,-0.50
2018-02-16T20:22:24.964Z,-0.50
2018-02-16T20:24:53.571Z,-0.60
2018-02-16T20:27:21.433Z,-0.60
2018-02-16T20:29:48.945Z,-0.70
2018-02-16T20:32:16.868Z,-0.90
2018-02-16T20:34:44.731Z,-1.10
2018-02-16T20:37:12.242Z,-1.10
2018-02-16T20:39:40.057Z,-1.20
2018-02-16T20:42:08.509Z,-1.20
2018-02-16T20:44:37.122Z,-1.00
2018-02-16T20:47:04.709Z,-1.00
2018-02-16T20:49:32.190Z,-0.90
2018-02-16T20:52:00.445Z,-1.00
2018-02-16T20:54:28.807Z,-1.00
2018-02-16T20:56:56.298Z,-1.10
2018-02-16T20:59:23.816Z,-1.20
2018-02-16T21:01:51.305Z,-1.20
2018-02-16T21:04:18.793Z,-1.20
2018-02-16T21:06:46.615Z,-1.00
2018-02-16T21:09:15.681Z,-1.00
2018-02-16T21:11:43.213Z,-0.90
2018-02-16T21:14:10.724Z,-0.90
2018-02-16T21:16:38.733Z,-0.80
2018-02-16T21:19:06.194Z,-0.80
2018-02-16T21:21:33.722Z,-0.70
2018-02-16T21:24:01.226Z,-0.70
2018-02-16T21:26:29.462Z,-0.70
2018-02-16T21:28:57.177Z,-0.70
2018-02-16T21:31:25.552Z,-0.70
2018-02-16T21:33:53.009Z,-0.80
2018-02-16T21:36:21.266Z,-0.80
2018-02-16T21:38:48.745Z,-0.80
2018-02-16T21:41:17.069Z,-0.80
2018-02-16T21:43:44.614Z,-0.80
2018-02-16T21:46:12.078Z,-0.90
2018-02-16T21:48:39.575Z,-1.00
2018-02-16T21:51:07.046Z,-1.00
2018-02-16T21:53:34.561Z,-1.00
2018-02-16T21:56:02.423Z,-0.90
2018-02-16T21:58:29.906Z,-0.90
2018-02-16T22:00:57.375Z,-0.90
2018-02-16T22:03:24.923Z,-1.00
2018-02-16T22:05:52.544Z,-1.00
2018-02-16T22:08:20.015Z,-0.90
2018-02-16T22:10:47.501Z,-0.80
2018-02-16T22:13:15.070Z,-0.70
2018-02-16T22:15:42.563Z,-0.70
2018-02-16T22:18:11.322Z,-0.50
2018-02-16T22:20:38.821Z,-0.50
2018-02-16T22:23:07.304Z,-0.30
2018-02-16T22:25:34.772Z,-0.30
2018-02-16T22:28:02.243Z,-0.20
2018-02-16T22:30:29.733Z,-0.20
2018-02-16T22:32:57.216Z,-0.30
2018-02-16T22:35:25.467Z,-0.50
2018-02-16T22:37:52.932Z,-0.50
2018-02-16T22:40:20.410Z,-0.70
2018-02-16T22:42:48.682Z,-1.00
2018-02-16T22:45:16.182Z,-1.10
2018-02-16T22:47:43.661Z,-1.10
2018-02-16T22:50:11.367Z,-1.30
2018-02-16T22:52:38.873Z,-1.30
2018-02-16T22:55:06.401Z,-1.50
2018-02-16T22:57:35.905Z,-1.60
2018-02-16T23:00:05.659Z,-1.60
2018-02-16T23:02:33.320Z,-1.60
2018-02-16T23:05:00.828Z,-1.60
2018-02-16T23:07:29.083Z,-1.50
2018-02-16T23:09:57.574Z,-1.50
2018-02-16T23:12:25.075Z,-1.40
2018-02-16T23:14:52.541Z,-1.40
2018-02-16T23:17:20.029Z,-1.50
2018-02-16T23:19:47.520Z,-1.40
2018-02-16T23:22:15.762Z,-1.40
2018-02-16T23:24:43.269Z,-1.40
2018-02-16T23:27:11.716Z,-1.20
2018-02-16T23:29:39.285Z,-1.20
2018-02-16T23:32:07.030Z,-1.10
2018-02-16T23:34:34.540Z,-1.10
2018-02-16T23:37:02.014Z,-1.00
2018-02-16T23:39:29.501Z,-0.80
2018-02-16T23:41:56.981Z,-0.90
2018-02-16T23:44:24.420Z,-0.90
2018-02-16T23:46:51.922Z,-1.00
2018-02-16T23:49:19.532Z,-1.10
2018-02-16T23:51:47.002Z,-1.20
2018-02-16T23:54:14.495Z,-1.30
2018-02-16T23:56:41.970Z,-1.30
2018-02-16T23:59:09.462Z,-1.30
